createdAt,value
2022-08-09T00:00:04.475Z,2.10
2022-08-09T00:02:34.745Z,2.60
2022-08-09T00:06:19.655Z,1.87
2022-08-09T00:07:54.276Z,2.00
2022-08-09T00:10:24.523Z,2.27
2022-08-09T00:12:53.368Z,2.50
2022-08-09T00:15:35.412Z,2.83
2022-08-09T00:18:12.542Z,1.93
2022-08-09T00:20:50.233Z,2.73
2022-08-09T00:23:56.723Z,2.13
2022-08-09T00:26:06.996Z,1.77
2022-08-09T00:28:35.247Z,1.90
2022-08-09T00:31:30.587Z,2.60
2022-08-09T00:33:55.735Z,2.03
2022-08-09T00:36:29.527Z,2.20
2022-08-09T00:38:58.608Z,2.00
2022-08-09T00:44:15.131Z,2.10
2022-08-09T00:44:27.223Z,1.97
2022-08-09T00:47:04.874Z,1.90
2022-08-09T00:49:36.860Z,2.07
2022-08-09T00:52:17.324Z,2.30
2022-08-09T00:54:45.873Z,1.90
2022-08-09T00:57:24.510Z,2.10
2022-08-09T00:59:57.071Z,2.10
2022-08-09T01:02:31.238Z,2.33
2022-08-09T01:05:14.017Z,1.80
2022-08-09T01:08:00.017Z,2.00
2022-08-09T01:10:32.577Z,1.70
2022-08-09T01:13:04.722Z,2.40
2022-08-09T01:15:41.100Z,1.90
2022-08-09T01:18:29.917Z,2.03
2022-08-09T01:21:13.488Z,2.30
2022-08-09T01:24:03.431Z,1.87
2022-08-09T01:26:46.294Z,1.90
2022-08-09T01:29:28.044Z,1.70
2022-08-09T01:32:29.757Z,1.73
2022-08-09T01:34:45.935Z,1.90
2022-08-09T01:37:21.843Z,2.23
2022-08-09T01:40:07.894Z,2.00
2022-08-09T01:42:37.967Z,2.00
2022-08-09T01:45:08.722Z,2.30
2022-08-09T01:47:44.533Z,1.90
2022-08-09T01:50:13.082Z,2.00
2022-08-09T01:52:45.017Z,1.93
2022-08-09T01:55:13.503Z,2.20
2022-08-09T01:57:46.053Z,2.00
2022-08-09T02:00:35.509Z,2.03
2022-08-09T02:03:10.544Z,1.90
2022-08-09T02:05:53.618Z,1.70
2022-08-09T02:08:39.490Z,2.23
2022-08-09T02:11:17.335Z,2.00
2022-08-09T02:14:06.377Z,2.23
2022-08-09T02:16:59.928Z,2.43
2022-08-09T02:19:38.648Z,2.30
2022-08-09T02:22:11.507Z,2.20
2022-08-09T02:24:39.937Z,2.17
2022-08-09T02:27:09.892Z,2.00
2022-08-09T02:29:45.130Z,2.23
2022-08-09T02:32:18.549Z,2.37
2022-08-09T02:34:55.658Z,2.23
2022-08-09T02:37:31.720Z,2.10
2022-08-09T02:40:03.905Z,2.23
2022-08-09T02:42:39.833Z,2.13
2022-08-09T02:45:15.175Z,2.20
2022-08-09T02:47:57.475Z,2.10
2022-08-09T02:50:30.023Z,2.30
2022-08-09T02:53:01.391Z,2.50
2022-08-09T02:55:46.154Z,2.20
2022-08-09T02:58:36.476Z,2.07
2022-08-09T03:01:11.324Z,1.97
2022-08-09T03:04:12.551Z,2.40
2022-08-09T03:06:41.905Z,2.43
2022-08-09T03:09:14.389Z,2.40
2022-08-09T05:08:51.218Z,2.70
2022-08-09T05:11:18.850Z,2.37
2022-08-09T05:13:48.850Z,2.60
2022-08-09T05:16:16.523Z,2.70
2022-08-09T05:18:58.692Z,2.90
2022-08-09T05:21:30.278Z,2.70
2022-08-09T05:24:06.659Z,2.53
2022-08-09T05:26:45.451Z,2.80
2022-08-09T05:29:17.407Z,2.70
2022-08-09T05:31:56.064Z,2.30
2022-08-09T05:34:30.218Z,2.40
2022-08-09T05:37:01.639Z,2.30
2022-08-09T05:39:36.216Z,2.20
2022-08-09T05:42:17.912Z,2.30
2022-08-09T05:44:50.642Z,2.40
2022-08-09T05:47:21.318Z,2.27
2022-08-09T05:50:29.934Z,2.47
2022-08-09T05:52:38.630Z,2.40
2022-08-09T05:55:10.971Z,2.37
2022-08-09T05:57:50.684Z,2.50
2022-08-09T06:00:26.035Z,2.40
2022-08-09T06:02:56.993Z,2.30
2022-08-09T06:05:31.175Z,2.30
2022-08-09T06:08:12.967Z,2.40
2022-08-09T06:10:42.027Z,2.20
2022-08-09T06:13:19.014Z,2.33
2022-08-09T06:15:51.484Z,2.50
2022-08-09T06:18:23.791Z,2.33
2022-08-09T06:20:54.549Z,2.43
2022-08-09T06:23:55.076Z,2.37
2022-08-09T06:26:15.012Z,2.60
2022-08-09T06:28:48.311Z,2.13
2022-08-09T06:31:16.310Z,2.10
2022-08-09T06:33:52.884Z,2.33
2022-08-09T06:36:20.995Z,2.80
2022-08-09T06:38:57.032Z,2.30
2022-08-09T06:42:08.244Z,2.57
2022-08-09T06:44:18.387Z,2.37
2022-08-09T06:46:48.132Z,2.47
2022-08-09T06:49:29.189Z,2.33
2022-08-09T06:52:06.610Z,1.90
2022-08-09T06:54:36.175Z,2.77
2022-08-09T06:57:08.365Z,2.40
2022-08-09T07:00:49.992Z,2.67
2022-08-09T07:02:30.778Z,2.53
2022-08-09T07:04:59.780Z,2.43
2022-08-09T07:07:58.675Z,2.30
2022-08-09T07:10:22.389Z,2.10
2022-08-09T07:12:57.734Z,2.20
2022-08-09T07:16:38.629Z,1.93
2022-08-09T07:18:14.306Z,2.10
2022-08-09T07:20:43.576Z,2.10
2022-08-09T07:23:19.621Z,2.40
2022-08-09T07:25:47.784Z,2.43
2022-08-09T07:28:27.993Z,2.27
2022-08-09T07:30:56.045Z,2.60
2022-08-09T07:33:23.746Z,2.23
2022-08-09T07:35:53.469Z,2.27
2022-08-09T07:38:23.397Z,2.40
2022-08-09T07:41:08.388Z,2.13
2022-08-09T07:43:41.175Z,2.33
2022-08-09T07:46:19.473Z,2.43
2022-08-09T07:48:58.763Z,2.33
2022-08-09T07:52:04.895Z,2.50
2022-08-09T07:54:15.703Z,2.43
2022-08-09T07:56:55.460Z,2.20
2022-08-09T07:59:34.598Z,2.10
2022-08-09T08:02:19.100Z,2.30
2022-08-09T08:04:48.788Z,2.43
2022-08-09T08:08:43.438Z,2.87
2022-08-09T08:10:07.971Z,2.60
2022-08-09T08:12:42.684Z,2.40
2022-08-09T08:15:16.796Z,2.50
2022-08-09T08:17:54.436Z,2.43
2022-08-09T08:20:29.111Z,2.73
2022-08-09T08:23:01.772Z,2.53
2022-08-09T08:25:44.071Z,2.57
2022-08-09T08:28:14.430Z,2.63
2022-08-09T08:30:44.935Z,2.60
2022-08-09T08:33:24.377Z,2.50
2022-08-09T08:35:59.394Z,2.60
2022-08-09T08:38:28.958Z,2.50
2022-08-09T08:40:58.184Z,2.70
2022-08-09T08:43:27.338Z,2.47
2022-08-09T08:46:09.926Z,2.03
2022-08-09T08:48:51.181Z,2.47
2022-08-09T08:51:22.435Z,2.60
2022-08-09T08:54:03.566Z,2.60
2022-08-09T08:56:35.286Z,2.40
2022-08-09T08:59:18.659Z,2.70
2022-08-09T09:01:52.994Z,2.47
2022-08-09T09:04:31.243Z,2.60
2022-08-09T09:07:07.843Z,2.50
2022-08-09T09:09:57.931Z,2.60
2022-08-09T09:12:29.152Z,2.30
2022-08-09T09:14:59.378Z,2.43
2022-08-09T09:17:48.315Z,2.40
2022-08-09T09:20:17.477Z,2.40
2022-08-09T09:22:53.287Z,2.33
2022-08-09T09:26:04.787Z,2.50
2022-08-09T09:29:02.353Z,2.77
2022-08-09T09:31:17.410Z,2.50
2022-08-09T09:34:14.180Z,2.70
2022-08-09T09:36:52.977Z,3.00
2022-08-09T09:39:42.845Z,3.10
2022-08-09T09:42:23.374Z,2.60
2022-08-09T09:44:57.438Z,2.30
2022-08-09T09:47:26.420Z,2.60
2022-08-09T09:50:14.901Z,2.53
2022-08-09T09:52:53.695Z,2.57
2022-08-09T09:55:32.158Z,2.53
2022-08-09T09:58:16.285Z,2.30
2022-08-09T10:00:54.147Z,2.60
2022-08-09T10:03:42.549Z,2.90
2022-08-09T10:06:13.303Z,2.90
2022-08-09T10:08:54.306Z,2.50
2022-08-09T10:12:00.132Z,2.47
2022-08-09T10:14:26.090Z,2.13
2022-08-09T10:17:11.364Z,2.33
2022-08-09T10:19:43.440Z,2.77
2022-08-09T10:22:15.150Z,2.60
2022-08-09T10:24:57.076Z,2.57
2022-08-09T10:27:34.638Z,2.70
2022-08-09T10:30:49.261Z,2.60
2022-08-09T10:32:56.312Z,2.70
2022-08-09T10:35:27.714Z,2.60
2022-08-09T10:37:59.517Z,2.50
2022-08-09T10:40:35.004Z,2.57
2022-08-09T10:43:08.217Z,2.63
2022-08-09T10:45:49.258Z,2.50
2022-08-09T10:48:30.973Z,2.43
2022-08-09T10:51:11.874Z,2.50
2022-08-09T10:53:54.603Z,2.80
2022-08-09T10:56:25.371Z,2.70
2022-08-09T10:58:54.678Z,2.70
2022-08-09T11:03:14.617Z,2.40
2022-08-09T11:04:32.686Z,2.60
2022-08-09T11:07:56.622Z,2.57
2022-08-09T11:10:18.675Z,2.93
2022-08-09T11:13:49.875Z,2.27
2022-08-09T11:16:35.239Z,2.60
2022-08-09T11:19:07.963Z,2.63
2022-08-09T11:21:57.141Z,2.80
2022-08-09T11:25:08.958Z,2.67
2022-08-09T11:28:02.393Z,2.53
2022-08-09T11:30:34.549Z,2.30
2022-08-09T11:33:05.730Z,2.53
2022-08-09T11:35:49.824Z,3.00
2022-08-09T11:38:19.486Z,2.40
2022-08-09T11:40:53.063Z,2.65
2022-08-09T11:43:42.797Z,2.80
2022-08-09T11:46:10.776Z,2.80
2022-08-09T11:48:49.240Z,2.65
2022-08-09T11:51:38.236Z,2.70
2022-08-09T11:54:27.606Z,2.37
2022-08-09T11:57:47.949Z,2.67
2022-08-09T12:00:27.348Z,2.63
2022-08-09T12:02:56.515Z,2.38
2022-08-09T12:05:37.140Z,2.70
2022-08-09T12:08:12.389Z,2.60
2022-08-09T12:10:48.975Z,2.60
2022-08-09T12:14:10.135Z,2.35
2022-08-09T12:16:30.367Z,2.50
2022-08-09T12:19:08.523Z,2.40
2022-08-09T12:21:39.283Z,2.88
2022-08-09T12:24:22.247Z,2.50
2022-08-09T12:29:13.477Z,2.85
2022-08-09T12:30:01.416Z,2.80
2022-08-09T12:32:42.999Z,2.47
2022-08-09T12:35:16.978Z,2.53
2022-08-09T12:37:51.632Z,2.55
2022-08-09T12:40:23.255Z,2.33
2022-08-09T12:42:52.582Z,2.60
2022-08-09T12:45:33.708Z,2.50
2022-08-09T12:48:10.772Z,2.30
2022-08-09T12:50:49.210Z,2.47
2022-08-09T12:53:34.957Z,3.15
2022-08-09T12:56:15.778Z,2.25
2022-08-09T12:59:10.631Z,2.33
2022-08-09T13:01:46.931Z,2.33
2022-08-09T13:04:36.954Z,2.47
2022-08-09T13:07:13.770Z,2.55
2022-08-09T13:09:52.582Z,2.40
2022-08-09T13:12:22.109Z,2.15
2022-08-09T13:14:54.287Z,2.10
2022-08-09T13:18:02.655Z,2.65
2022-08-09T13:20:20.245Z,2.30
2022-08-09T13:23:01.604Z,2.63
2022-08-09T13:25:42.380Z,2.42
2022-08-09T13:28:18.791Z,2.50
2022-08-09T13:32:12.601Z,2.45
2022-08-09T13:33:54.390Z,2.75
2022-08-09T13:36:42.518Z,2.47
2022-08-09T13:41:54.073Z,2.15
2022-08-09T13:42:04.183Z,2.80
2022-08-09T13:44:32.979Z,2.40
2022-08-09T13:47:26.487Z,2.63
2022-08-09T13:49:57.254Z,2.50
2022-08-09T13:52:30.720Z,2.50
2022-08-09T13:55:02.118Z,2.65
2022-08-09T13:57:39.433Z,2.35
2022-08-09T14:00:14.052Z,2.40
2022-08-09T14:03:02.889Z,2.85
2022-08-09T14:05:56.771Z,2.10
2022-08-09T14:08:22.086Z,2.05
2022-08-09T14:10:52.284Z,2.53
2022-08-09T14:14:15.449Z,2.25
2022-08-09T14:16:15.137Z,2.20
2022-08-09T14:18:46.018Z,2.50
2022-08-09T14:21:20.333Z,2.60
2022-08-09T14:23:53.885Z,2.30
2022-08-09T14:26:29.256Z,3.42
2022-08-09T14:29:00.638Z,2.75
2022-08-09T14:31:35.730Z,2.50
2022-08-09T14:34:08.197Z,2.58
2022-08-09T14:36:39.788Z,2.50
2022-08-09T14:39:12.233Z,2.30
2022-08-09T14:41:41.814Z,2.50
2022-08-09T14:44:11.439Z,2.40
2022-08-09T14:47:03.268Z,2.63
2022-08-09T14:49:27.626Z,2.67
2022-08-09T14:52:02.115Z,2.50
2022-08-09T14:54:32.204Z,2.13
2022-08-09T14:57:01.805Z,2.25
2022-08-09T14:59:31.424Z,2.38
2022-08-09T15:02:07.622Z,2.60
2022-08-09T15:04:38.244Z,2.50
2022-08-09T15:07:06.135Z,2.30
2022-08-09T15:10:07.318Z,2.17
2022-08-09T15:12:27.673Z,2.10
2022-08-09T15:14:55.376Z,2.50
2022-08-09T15:17:24.154Z,2.38
2022-08-09T15:20:02.237Z,2.40
2022-08-09T15:22:30.289Z,2.40
2022-08-09T15:25:03.941Z,2.50
2022-08-09T15:27:47.952Z,2.40
2022-08-09T15:30:57.009Z,2.50
2022-08-09T15:33:08.274Z,3.25
2022-08-09T15:35:57.079Z,2.55
2022-08-09T15:38:30.739Z,2.60
2022-08-09T15:40:59.973Z,2.47
2022-08-09T15:43:29.929Z,2.50
2022-08-09T15:46:28.435Z,2.40
2022-08-09T15:49:22.501Z,2.42
2022-08-09T15:52:03.129Z,2.42
2022-08-09T15:54:42.372Z,2.30
2022-08-09T15:57:19.244Z,2.42
2022-08-09T16:00:03.291Z,2.60
2022-08-09T16:02:31.312Z,2.60
2022-08-09T16:04:59.057Z,2.35
2022-08-09T16:07:31.044Z,2.78
2022-08-09T16:10:11.420Z,2.33
2022-08-09T16:12:59.326Z,2.45
2022-08-09T16:16:04.454Z,2.20
2022-08-09T16:18:15.928Z,2.28
2022-08-09T16:20:43.678Z,2.30
2022-08-09T16:23:14.356Z,2.55
2022-08-09T16:25:49.605Z,2.42
2022-08-09T16:28:25.524Z,2.65
2022-08-09T16:30:54.089Z,2.55
2022-08-09T16:33:26.800Z,2.90
2022-08-09T16:35:59.101Z,2.50
2022-08-09T16:38:29.676Z,2.40
2022-08-09T16:40:57.944Z,2.40
2022-08-09T16:43:27.552Z,2.40
2022-08-09T16:45:55.524Z,2.30
2022-08-09T16:48:40.589Z,2.27
2022-08-09T16:51:13.799Z,2.13
2022-08-09T16:54:02.484Z,2.10
2022-08-09T16:56:31.016Z,2.40
2022-08-09T16:59:01.116Z,2.50
2022-08-09T17:01:35.506Z,2.27
2022-08-09T17:04:05.362Z,2.80
2022-08-09T17:08:40.292Z,2.40
2022-08-09T17:09:44.987Z,2.47
2022-08-09T17:12:09.981Z,2.47
2022-08-09T17:14:39.226Z,2.60
2022-08-09T17:17:27.552Z,2.20
2022-08-09T17:20:29.145Z,2.00
2022-08-09T17:22:51.836Z,2.10
2022-08-09T17:25:22.149Z,2.67
2022-08-09T17:27:53.892Z,2.40
2022-08-09T17:30:25.693Z,2.20
2022-08-09T17:32:54.256Z,2.20
2022-08-09T17:35:21.950Z,2.50
2022-08-09T17:38:10.199Z,2.23
2022-08-09T17:40:39.878Z,2.53
2022-08-09T17:43:32.671Z,2.10
2022-08-09T17:46:03.612Z,2.17
2022-08-09T17:48:34.944Z,2.27
2022-08-09T17:51:09.520Z,2.37
2022-08-09T17:53:51.654Z,2.40
2022-08-09T17:56:21.162Z,1.90
2022-08-09T17:58:48.797Z,2.20
2022-08-09T18:01:23.274Z,2.40
2022-08-09T18:03:52.306Z,2.20
2022-08-09T18:06:32.190Z,2.30
2022-08-09T18:09:03.354Z,2.20
2022-08-09T18:12:05.611Z,2.10
2022-08-09T18:14:20.204Z,2.10
2022-08-09T18:16:49.859Z,2.37
2022-08-09T18:20:56.142Z,2.10
2022-08-09T18:22:06.370Z,2.00
2022-08-09T18:24:44.455Z,2.20
2022-08-09T18:27:54.878Z,2.23
2022-08-09T18:30:42.770Z,2.10
2022-08-09T18:32:54.715Z,2.17
2022-08-09T18:35:58.541Z,2.27
2022-08-09T18:38:12.487Z,2.20
2022-08-09T18:40:41.543Z,2.10
2022-08-09T18:43:09.759Z,2.10
2022-08-09T18:46:47.910Z,2.00
2022-08-09T18:48:30.426Z,1.90
2022-08-09T18:51:00.874Z,1.83
2022-08-09T18:53:34.554Z,2.00
2022-08-09T18:56:17.445Z,2.00
2022-08-09T18:58:47.682Z,2.00
2022-08-09T19:01:23.242Z,2.10
2022-08-09T19:04:06.506Z,2.10
2022-08-09T19:06:38.771Z,1.90
2022-08-09T19:09:07.907Z,1.90
2022-08-09T19:11:41.626Z,2.00
2022-08-09T19:14:09.276Z,1.80
2022-08-09T19:16:38.039Z,1.90
2022-08-09T19:19:25.671Z,2.00
2022-08-09T19:22:06.941Z,2.10
2022-08-09T19:25:07.532Z,1.73
2022-08-09T19:27:23.277Z,2.17
2022-08-09T19:30:23.254Z,1.80
2022-08-09T19:32:38.864Z,1.90
2022-08-09T19:35:09.405Z,1.63
2022-08-09T19:37:54.025Z,1.83
2022-08-09T19:40:22.917Z,2.07
2022-08-09T19:42:50.955Z,1.70
2022-08-09T19:45:19.911Z,1.90
2022-08-09T19:47:48.236Z,1.73
2022-08-09T19:50:50.877Z,1.70
2022-08-09T19:53:05.022Z,1.83
2022-08-09T19:55:52.903Z,1.90
2022-08-09T19:58:30.177Z,2.10
2022-08-09T20:00:58.247Z,1.70
2022-08-09T20:04:23.695Z,1.80
2022-08-09T20:06:22.544Z,1.70
2022-08-09T20:08:52.547Z,1.70
2022-08-09T20:11:26.275Z,2.10
2022-08-09T20:13:54.789Z,1.90
2022-08-09T20:16:35.163Z,2.03
2022-08-09T20:19:48.869Z,1.70
2022-08-09T20:21:59.970Z,1.70
2022-08-09T20:24:29.491Z,1.43
2022-08-09T20:27:01.404Z,1.70
2022-08-09T20:29:37.103Z,1.53
2022-08-09T20:32:30.773Z,1.90
2022-08-09T20:34:54.751Z,1.87
2022-08-09T20:37:23.901Z,1.57
2022-08-09T20:40:15.494Z,2.00
2022-08-09T20:42:39.786Z,1.90
2022-08-09T20:45:59.708Z,1.90
2022-08-09T20:48:02.073Z,1.90
2022-08-09T20:50:47.662Z,1.80
2022-08-09T20:53:35.321Z,1.80
2022-08-09T20:56:08.738Z,2.00
2022-08-09T20:58:38.049Z,1.93
2022-08-09T21:01:32.628Z,1.70
2022-08-09T21:05:48.482Z,1.80
2022-08-09T21:06:44.038Z,1.70
2022-08-09T21:09:14.306Z,1.83
2022-08-09T21:14:33.104Z,1.87
2022-08-09T21:18:23.814Z,1.70
2022-08-09T21:20:19.619Z,1.70
2022-08-09T21:22:42.167Z,1.90
2022-08-09T21:25:37.666Z,2.20
2022-08-09T21:28:06.500Z,2.00
2022-08-09T21:30:40.195Z,2.13
2022-08-09T21:33:08.515Z,2.20
2022-08-09T21:35:40.525Z,1.90
2022-08-09T21:38:21.026Z,2.20
2022-08-09T21:41:00.662Z,2.13
2022-08-09T21:43:46.773Z,2.00
2022-08-09T21:46:16.827Z,2.20
2022-08-09T21:48:49.135Z,2.47
2022-08-09T21:51:19.265Z,2.50
2022-08-09T21:54:03.341Z,2.47
2022-08-09T21:56:42.023Z,2.40
2022-08-09T21:59:12.091Z,2.30
2022-08-09T22:02:00.476Z,2.07
2022-08-09T22:04:56.587Z,2.10
2022-08-09T22:07:23.380Z,2.33
2022-08-09T22:10:07.165Z,2.20
2022-08-09T22:12:38.042Z,2.10
2022-08-09T22:15:16.504Z,2.20
2022-08-09T22:17:46.560Z,1.87
2022-08-09T22:20:17.105Z,1.97
2022-08-09T22:22:49.488Z,2.07
2022-08-09T22:26:05.803Z,2.03
2022-08-09T22:28:07.590Z,2.10
2022-08-09T22:30:36.665Z,1.90
2022-08-09T22:33:09.544Z,2.00
2022-08-09T22:36:02.147Z,2.30
2022-08-09T22:38:26.287Z,1.80
2022-08-09T22:40:57.770Z,1.80
2022-08-09T22:44:03.336Z,1.57
2022-08-09T22:48:17.010Z,2.33
2022-08-09T22:49:10.035Z,1.87
2022-08-09T22:51:39.382Z,1.63
2022-08-09T22:54:11.254Z,1.60
2022-08-09T22:56:41.516Z,1.77
2022-08-09T22:59:57.378Z,1.77
2022-08-09T23:01:58.595Z,1.90
2022-08-09T23:04:26.286Z,1.70
2022-08-09T23:07:17.912Z,1.57
2022-08-09T23:10:06.438Z,1.60
2022-08-09T23:12:34.098Z,1.70
2022-08-09T23:15:03.184Z,1.77
2022-08-09T23:17:31.180Z,1.70
2022-08-09T23:20:00.895Z,1.60
2022-08-09T23:22:35.819Z,1.50
2022-08-09T23:25:03.905Z,1.67
2022-08-09T23:27:31.810Z,1.60
2022-08-09T23:29:59.667Z,2.00
2022-08-09T23:32:28.687Z,1.50
2022-08-09T23:34:56.389Z,1.67
2022-08-09T23:37:25.655Z,1.77
2022-08-09T23:39:53.636Z,1.60
2022-08-09T23:42:21.328Z,1.50
2022-08-09T23:44:48.979Z,1.70
2022-08-09T23:47:16.815Z,1.70
2022-08-09T23:49:46.244Z,1.60
2022-08-09T23:52:13.980Z,1.60
2022-08-09T23:54:45.433Z,1.87
2022-08-09T23:57:13.406Z,1.50
